createdAt,value
2022-12-02T00:00:00.852Z,1.30
2022-12-02T00:03:03.184Z,1.41
2022-12-02T00:06:12.099Z,1.40
2022-12-02T00:09:43.146Z,1.51
2022-12-02T00:12:45.567Z,1.56
2022-12-02T00:15:51.302Z,1.56
2022-12-02T00:18:54.924Z,1.52
2022-12-02T00:21:57.210Z,1.55
2022-12-02T00:24:59.552Z,1.50
2022-12-02T00:28:02.398Z,1.45
2022-12-02T00:31:04.862Z,1.41
2022-12-02T00:34:07.168Z,1.38
2022-12-02T00:37:09.422Z,1.30
2022-12-02T00:40:12.441Z,1.28
2022-12-02T00:43:33.631Z,1.24
2022-12-02T00:46:37.053Z,1.17
2022-12-02T00:49:39.742Z,1.12
2022-12-02T00:52:41.971Z,1.06
2022-12-02T00:55:44.230Z,1.06
2022-12-02T00:58:46.725Z,0.99
2022-12-02T01:01:49.270Z,0.97
2022-12-02T01:04:51.930Z,0.93
2022-12-02T01:07:54.333Z,0.84
2022-12-02T01:10:57.513Z,0.82
2022-12-02T01:13:59.985Z,0.84
2022-12-02T01:17:02.458Z,0.82
2022-12-02T01:20:06.219Z,0.86
2022-12-02T01:23:08.581Z,0.92
2022-12-02T01:26:10.936Z,1.05
2022-12-02T01:29:13.200Z,1.13
2022-12-02T01:32:15.612Z,1.21
2022-12-02T01:35:18.236Z,1.29
2022-12-02T01:38:20.640Z,1.33
2022-12-02T01:41:23.359Z,1.36
2022-12-02T01:44:26.101Z,1.38
2022-12-02T01:47:28.669Z,1.38
2022-12-02T01:50:32.308Z,1.33
2022-12-02T01:53:35.579Z,1.33
2022-12-02T01:56:38.119Z,1.30
2022-12-02T01:59:41.882Z,1.30
2022-12-02T02:02:45.413Z,1.26
2022-12-02T02:05:48.500Z,1.24
2022-12-02T02:08:52.051Z,1.30
2022-12-02T02:11:54.945Z,1.31
2022-12-02T02:14:57.663Z,1.33
2022-12-02T02:18:04.837Z,1.35
2022-12-02T02:21:10.898Z,1.38
2022-12-02T02:24:13.259Z,1.39
2022-12-02T02:27:15.642Z,1.39
2022-12-02T02:30:18.718Z,1.40
2022-12-02T02:33:23.937Z,1.36
2022-12-02T02:36:26.370Z,1.35
2022-12-02T02:39:28.877Z,1.33
2022-12-02T02:42:31.412Z,1.33
2022-12-02T02:45:36.481Z,1.31
2022-12-02T02:48:41.875Z,1.31
2022-12-02T02:51:44.352Z,1.31
2022-12-02T02:54:46.765Z,1.28
2022-12-02T02:57:49.423Z,1.34
2022-12-02T03:01:02.532Z,1.34
2022-12-02T03:04:10.611Z,1.34
2022-12-02T03:07:14.546Z,1.31
2022-12-02T03:10:17.632Z,1.31
2022-12-02T03:13:20.365Z,1.34
2022-12-02T03:16:25.034Z,1.38
2022-12-02T03:19:30.129Z,1.47
2022-12-02T03:22:32.853Z,1.47
2022-12-02T03:25:35.347Z,1.45
2022-12-02T03:28:37.665Z,1.47
2022-12-02T03:31:40.260Z,1.51
2022-12-02T03:34:42.629Z,1.53
2022-12-02T03:37:44.998Z,1.59
2022-12-02T03:40:47.767Z,1.55
2022-12-02T03:43:50.073Z,1.49
2022-12-02T03:46:52.571Z,1.46
2022-12-02T03:49:55.092Z,1.51
2022-12-02T03:52:57.678Z,1.57
2022-12-02T03:56:05.696Z,1.67
2022-12-02T03:59:09.774Z,1.67
2022-12-02T04:02:12.143Z,1.62
2022-12-02T04:05:14.445Z,1.62
2022-12-02T04:08:16.714Z,1.57
2022-12-02T04:11:18.985Z,1.58
2022-12-02T04:14:21.330Z,1.61
2022-12-02T04:17:23.634Z,1.62
2022-12-02T04:20:25.847Z,1.65
2022-12-02T04:23:28.201Z,1.60
2022-12-02T04:26:30.530Z,1.61
2022-12-02T04:29:32.895Z,1.66
2022-12-02T04:32:35.171Z,1.65
2022-12-02T04:35:37.557Z,1.64
2022-12-02T04:38:39.828Z,1.68
2022-12-02T04:41:42.083Z,1.72
2022-12-02T04:44:44.336Z,1.66
2022-12-02T04:47:46.624Z,1.68
2022-12-02T04:50:48.920Z,1.72
2022-12-02T04:53:51.280Z,1.71
2022-12-02T04:56:53.686Z,1.71
2022-12-02T04:59:56.485Z,1.69
2022-12-02T05:02:58.876Z,1.71
2022-12-02T05:06:01.282Z,1.75
2022-12-02T05:09:03.843Z,1.91
2022-12-02T05:12:06.286Z,1.95
2022-12-02T05:15:09.025Z,1.89
2022-12-02T05:18:11.286Z,1.69
2022-12-02T05:21:13.628Z,1.72
2022-12-02T05:24:16.806Z,1.70
2022-12-02T05:27:19.148Z,1.73
2022-12-02T05:30:21.491Z,1.78
2022-12-02T05:33:23.825Z,1.81
2022-12-02T05:36:26.094Z,1.82
2022-12-02T05:39:28.424Z,1.79
2022-12-02T05:42:30.708Z,1.78
2022-12-02T05:45:33.645Z,1.79
2022-12-02T05:48:35.975Z,1.78
2022-12-02T05:51:38.333Z,1.83
2022-12-02T05:54:40.615Z,1.87
2022-12-02T05:57:43.019Z,1.86
2022-12-02T06:00:48.382Z,1.89
2022-12-02T06:03:51.295Z,1.84
2022-12-02T06:06:55.018Z,1.88
2022-12-02T06:09:57.321Z,1.89
2022-12-02T06:13:12.881Z,1.87
2022-12-02T06:16:23.931Z,1.88
2022-12-02T06:19:40.590Z,1.94
2022-12-02T06:22:42.998Z,1.94
2022-12-02T06:25:46.787Z,1.97
2022-12-02T06:28:58.130Z,1.93
2022-12-02T06:32:01.007Z,1.88
2022-12-02T06:35:16.451Z,1.88
2022-12-02T06:38:27.902Z,1.94
2022-12-02T06:41:33.303Z,1.98
2022-12-02T06:44:54.128Z,1.96
2022-12-02T06:48:01.432Z,1.96
2022-12-02T06:51:22.187Z,2.00
2022-12-02T06:54:29.074Z,2.03
2022-12-02T06:57:31.689Z,2.05
2022-12-02T07:00:34.214Z,2.08
2022-12-02T07:03:45.037Z,2.07
2022-12-02T07:06:52.686Z,2.08
2022-12-02T07:09:56.552Z,2.12
2022-12-02T07:13:03.543Z,2.14
2022-12-02T07:16:42.553Z,2.16
2022-12-02T07:19:46.914Z,2.20
2022-12-02T07:22:58.959Z,2.38
2022-12-02T07:26:01.495Z,2.58
2022-12-02T07:29:15.883Z,2.76
2022-12-02T07:32:18.585Z,2.99
2022-12-02T07:45:05.048Z,3.51
2022-12-02T07:48:07.766Z,3.48
2022-12-02T07:51:10.250Z,3.42
2022-12-02T07:54:16.975Z,3.45
2022-12-02T07:57:19.702Z,3.52
2022-12-02T08:00:23.073Z,3.54
2022-12-02T08:03:25.659Z,3.56
2022-12-02T08:06:39.737Z,3.56
2022-12-02T08:09:42.609Z,3.58
2022-12-02T08:12:44.844Z,3.68
2022-12-02T08:15:52.658Z,3.78
2022-12-02T08:18:56.605Z,3.90
2022-12-02T08:21:59.124Z,4.00
2022-12-02T08:25:01.693Z,4.18
2022-12-02T08:28:04.007Z,4.37
2022-12-02T08:31:06.357Z,4.60
2022-12-02T08:34:08.669Z,4.81
2022-12-02T08:37:11.593Z,4.93
2022-12-02T08:40:14.672Z,5.06
2022-12-02T08:43:16.968Z,4.96
2022-12-02T08:46:19.226Z,4.78
2022-12-02T08:49:22.412Z,4.93
2022-12-02T08:52:24.793Z,4.99
2022-12-02T08:55:28.045Z,5.05
2022-12-02T08:58:30.385Z,5.10
2022-12-02T09:01:33.041Z,5.09
2022-12-02T09:04:35.431Z,5.12
2022-12-02T09:07:37.842Z,5.00
2022-12-02T09:10:40.305Z,4.88
2022-12-02T09:13:42.635Z,4.78
2022-12-02T09:16:44.902Z,4.68
2022-12-02T09:19:47.221Z,4.52
2022-12-02T09:22:49.823Z,4.45
2022-12-02T09:25:57.025Z,4.40
2022-12-02T09:28:59.342Z,4.46
2022-12-02T09:32:01.837Z,4.50
2022-12-02T09:35:04.512Z,4.58
2022-12-02T09:38:07.270Z,4.70
2022-12-02T09:41:10.009Z,4.70
2022-12-02T09:44:12.439Z,4.65
2022-12-02T09:47:15.643Z,4.68
2022-12-02T09:50:18.118Z,4.81
2022-12-02T09:53:21.747Z,4.93
2022-12-02T09:56:24.141Z,4.92
2022-12-02T09:59:27.369Z,5.03
2022-12-02T10:02:40.498Z,5.15
2022-12-02T10:05:44.130Z,5.26
2022-12-02T10:08:47.151Z,5.27
2022-12-02T10:11:50.025Z,5.30
2022-12-02T10:15:00.713Z,5.34
2022-12-02T10:18:10.804Z,5.27
2022-12-02T10:21:13.506Z,5.38
2022-12-02T10:24:15.818Z,5.32
2022-12-02T10:27:31.996Z,5.26
2022-12-02T10:30:34.407Z,5.43
2022-12-02T10:33:51.485Z,5.31
2022-12-02T10:36:54.691Z,5.33
2022-12-02T10:40:23.714Z,5.26
2022-12-02T10:43:25.971Z,5.14
2022-12-02T10:46:29.271Z,5.20
2022-12-02T10:49:36.786Z,5.09
2022-12-02T10:52:57.670Z,4.97
2022-12-02T10:55:59.972Z,4.94
2022-12-02T10:59:02.894Z,4.93
2022-12-02T11:02:22.928Z,5.05
2022-12-02T11:05:31.574Z,5.04
2022-12-02T11:08:34.033Z,4.97
2022-12-02T11:11:40.594Z,4.93
2022-12-02T11:14:42.782Z,5.03
2022-12-02T11:17:49.776Z,5.16
2022-12-02T11:21:15.172Z,5.19
2022-12-02T11:24:23.661Z,5.30
2022-12-02T11:27:25.966Z,5.31
2022-12-02T11:30:28.165Z,5.44
2022-12-02T11:33:53.104Z,5.49
2022-12-02T11:37:30.802Z,5.44
2022-12-02T11:40:33.092Z,5.48
2022-12-02T11:44:26.051Z,5.40
2022-12-02T11:47:32.371Z,5.30
2022-12-02T11:50:41.202Z,5.38
2022-12-02T11:53:51.145Z,5.48
2022-12-02T11:56:54.407Z,5.40
2022-12-02T11:59:58.071Z,5.37
2022-12-02T12:03:13.043Z,5.33
2022-12-02T12:06:16.805Z,5.43
2022-12-02T12:09:19.168Z,5.63
2022-12-02T12:12:21.510Z,5.74
2022-12-02T12:15:57.446Z,5.81
2022-12-02T12:19:24.202Z,5.88
2022-12-02T12:22:29.405Z,5.95
2022-12-02T12:25:42.601Z,5.82
2022-12-02T12:28:45.049Z,5.69
2022-12-02T12:31:47.408Z,5.60
2022-12-02T12:34:50.058Z,5.48
2022-12-02T12:37:52.861Z,5.43
2022-12-02T12:40:56.178Z,5.36
2022-12-02T12:43:58.945Z,5.34
2022-12-02T12:47:04.328Z,5.25
2022-12-02T12:50:07.563Z,5.16
2022-12-02T12:53:09.865Z,5.09
2022-12-02T12:56:12.307Z,4.88
2022-12-02T12:59:14.935Z,4.70
2022-12-02T13:02:18.618Z,4.49
2022-12-02T13:05:21.021Z,4.34
2022-12-02T13:08:23.479Z,4.28
2022-12-02T13:11:26.408Z,4.44
2022-12-02T13:14:28.772Z,4.27
2022-12-02T13:17:31.039Z,4.13
2022-12-02T13:20:33.492Z,4.22
2022-12-02T13:23:37.528Z,4.18
2022-12-02T13:26:39.847Z,4.06
2022-12-02T13:29:42.268Z,4.03
2022-12-02T13:32:45.260Z,4.00
2022-12-02T13:35:47.657Z,3.98
2022-12-02T13:38:49.996Z,3.91
2022-12-02T13:41:52.319Z,3.92
2022-12-02T13:44:55.000Z,3.85
2022-12-02T13:47:57.395Z,3.80
2022-12-02T13:51:02.512Z,3.86
2022-12-02T13:54:06.362Z,3.89
2022-12-02T13:57:09.002Z,3.83
2022-12-02T14:00:12.993Z,3.65
2022-12-02T14:03:15.309Z,3.51
2022-12-02T14:06:17.724Z,3.47
2022-12-02T14:09:20.077Z,3.78
2022-12-02T14:12:22.581Z,3.83
2022-12-02T14:15:25.366Z,3.85
2022-12-02T14:18:27.779Z,3.65
2022-12-02T14:21:30.248Z,3.59
2022-12-02T14:24:32.755Z,3.54
2022-12-02T14:27:35.149Z,3.36
2022-12-02T14:30:37.475Z,3.33
2022-12-02T14:34:09.564Z,3.24
2022-12-02T14:37:02.251Z,3.19
2022-12-02T14:40:05.523Z,3.09
2022-12-02T14:43:14.002Z,2.99
2022-12-02T14:46:16.748Z,2.99
2022-12-02T14:52:41.361Z,2.96
2022-12-02T14:55:43.725Z,2.97
2022-12-02T14:58:46.054Z,2.91
2022-12-02T15:01:48.419Z,2.81
2022-12-02T15:04:51.019Z,2.77
2022-12-02T15:07:53.619Z,2.69
2022-12-02T15:10:55.989Z,2.68
2022-12-02T15:13:58.253Z,2.61
2022-12-02T15:17:00.630Z,2.62
2022-12-02T15:20:03.076Z,2.61
2022-12-02T15:23:05.562Z,2.74
2022-12-02T15:26:07.942Z,2.73
2022-12-02T15:29:10.306Z,2.71
2022-12-02T15:32:18.834Z,2.68
2022-12-02T15:35:21.461Z,2.59
2022-12-02T15:38:24.836Z,2.55
2022-12-02T15:41:27.298Z,2.52
2022-12-02T15:44:29.563Z,2.51
2022-12-02T15:47:31.840Z,2.53
2022-12-02T15:50:34.242Z,2.57
2022-12-02T15:53:36.660Z,2.64
2022-12-02T15:56:39.237Z,2.68
2022-12-02T15:59:41.630Z,2.69
2022-12-02T16:02:44.026Z,2.66
2022-12-02T16:05:46.377Z,2.65
2022-12-02T16:08:54.945Z,2.69
2022-12-02T16:11:57.680Z,2.65
2022-12-02T16:15:00.600Z,2.68
2022-12-02T16:18:03.220Z,2.71
2022-12-02T16:21:05.745Z,2.73
2022-12-02T16:24:08.045Z,2.77
2022-12-02T16:27:10.899Z,2.80
2022-12-02T16:30:13.780Z,2.85
2022-12-02T16:33:15.979Z,2.89
2022-12-02T16:36:18.305Z,2.86
2022-12-02T16:39:20.539Z,2.85
2022-12-02T16:42:23.109Z,2.85
2022-12-02T16:45:25.424Z,2.84
2022-12-02T16:48:27.766Z,2.80
2022-12-02T16:51:30.071Z,2.80
2022-12-02T16:54:32.409Z,2.75
2022-12-02T16:57:34.698Z,2.69
2022-12-02T17:00:37.058Z,2.67
2022-12-02T17:03:39.390Z,2.55
2022-12-02T17:06:41.665Z,2.51
2022-12-02T17:09:44.497Z,2.52
2022-12-02T17:12:46.757Z,2.49
2022-12-02T17:15:49.367Z,2.49
2022-12-02T17:18:51.863Z,2.52
2022-12-02T17:21:54.136Z,2.49
2022-12-02T17:24:56.715Z,2.53
2022-12-02T17:27:58.979Z,2.53
2022-12-02T17:31:01.612Z,2.55
2022-12-02T17:34:03.872Z,2.57
2022-12-02T17:37:06.258Z,2.58
2022-12-02T17:40:08.928Z,2.60
2022-12-02T17:43:11.239Z,2.65
2022-12-02T17:46:14.373Z,2.67
2022-12-02T17:49:17.075Z,2.66
2022-12-02T17:52:20.880Z,2.67
2022-12-02T17:55:23.683Z,2.69
2022-12-02T17:58:26.476Z,2.69
2022-12-02T18:01:28.928Z,2.71
2022-12-02T18:04:31.212Z,2.72
2022-12-02T18:07:33.633Z,2.69
2022-12-02T18:10:35.969Z,2.64
2022-12-02T18:13:38.275Z,2.60
2022-12-02T18:16:40.693Z,2.57
2022-12-02T18:19:43.868Z,2.61
2022-12-02T18:22:46.493Z,2.67
2022-12-02T18:25:48.947Z,2.66
2022-12-02T18:28:51.186Z,2.64
2022-12-02T18:31:53.660Z,2.60
2022-12-02T18:34:56.084Z,2.60
2022-12-02T18:37:59.604Z,2.64
2022-12-02T18:41:02.387Z,2.67
2022-12-02T18:44:04.867Z,2.66
2022-12-02T18:47:07.216Z,2.66
2022-12-02T18:50:11.366Z,2.66
2022-12-02T18:53:13.686Z,2.67
2022-12-02T18:56:22.108Z,2.67
2022-12-02T18:59:26.521Z,2.68
2022-12-02T19:02:28.879Z,2.57
2022-12-02T19:05:31.198Z,2.57
2022-12-02T19:08:33.716Z,2.56
2022-12-02T19:11:36.041Z,2.57
2022-12-02T19:14:38.376Z,2.60
2022-12-02T19:17:40.647Z,2.62
2022-12-02T19:20:42.923Z,2.63
2022-12-02T19:23:45.886Z,2.66
2022-12-02T19:26:48.237Z,2.68
2022-12-02T19:29:50.789Z,2.72
2022-12-02T19:32:54.128Z,2.66
2022-12-02T19:35:56.481Z,2.69
2022-12-02T19:38:58.807Z,2.71
2022-12-02T19:42:01.040Z,2.71
2022-12-02T19:45:03.720Z,2.67
2022-12-02T19:48:06.208Z,2.66
2022-12-02T19:51:08.553Z,2.71
2022-12-02T19:54:10.822Z,2.73
2022-12-02T19:57:13.185Z,2.73
2022-12-02T20:00:16.757Z,2.74
2022-12-02T20:03:19.580Z,2.69
2022-12-02T20:06:21.877Z,2.69
2022-12-02T20:09:26.495Z,2.69
2022-12-02T20:12:28.827Z,2.69
2022-12-02T20:15:31.237Z,2.71
2022-12-02T20:18:33.874Z,2.72
2022-12-02T20:21:36.176Z,2.80
2022-12-02T20:24:38.522Z,2.80
2022-12-02T20:27:40.867Z,2.79
2022-12-02T20:30:43.292Z,2.68
2022-12-02T20:33:45.629Z,2.68
2022-12-02T20:36:47.977Z,2.74
2022-12-02T20:39:50.241Z,2.79
2022-12-02T20:42:52.737Z,2.79
2022-12-02T20:45:56.492Z,2.80
2022-12-02T20:48:58.837Z,2.80
2022-12-02T20:52:01.159Z,2.81
2022-12-02T20:55:06.539Z,2.84
2022-12-02T20:58:09.071Z,2.85
2022-12-02T21:01:12.933Z,2.83
2022-12-02T21:04:15.353Z,2.84
2022-12-02T21:07:17.660Z,2.81
2022-12-02T21:10:20.049Z,2.79
2022-12-02T21:13:22.639Z,2.82
2022-12-02T21:16:24.999Z,2.81
2022-12-02T21:19:27.298Z,2.79
2022-12-02T21:22:29.541Z,2.80
2022-12-02T21:25:32.721Z,2.81
2022-12-02T21:28:35.068Z,2.82
2022-12-02T21:31:38.160Z,2.85
2022-12-02T21:34:40.433Z,2.85
2022-12-02T21:37:42.705Z,2.79
2022-12-02T21:40:45.006Z,2.79
2022-12-02T21:43:47.281Z,2.76
2022-12-02T21:46:50.035Z,2.79
2022-12-02T21:49:52.347Z,2.74
2022-12-02T21:52:55.017Z,2.65
2022-12-02T21:55:57.259Z,2.64
2022-12-02T21:58:59.523Z,2.74
2022-12-02T22:02:01.958Z,2.72
2022-12-02T22:05:04.575Z,2.71
2022-12-02T22:08:07.012Z,2.72
2022-12-02T22:11:09.422Z,2.69
2022-12-02T22:14:11.695Z,2.66
2022-12-02T22:17:13.923Z,2.70
2022-12-02T22:20:18.204Z,2.69
2022-12-02T22:23:20.630Z,2.68
2022-12-02T22:26:22.898Z,2.62
2022-12-02T22:29:25.139Z,2.59
2022-12-02T22:32:27.554Z,2.65
2022-12-02T22:35:29.744Z,2.67
2022-12-02T22:38:32.088Z,2.66
2022-12-02T22:41:34.319Z,2.65
2022-12-02T22:44:36.591Z,2.71
2022-12-02T22:47:39.563Z,2.69
2022-12-02T22:50:41.882Z,2.58
2022-12-02T22:53:44.292Z,2.57
2022-12-02T22:56:46.550Z,2.54
2022-12-02T22:59:48.744Z,2.55
2022-12-02T23:02:51.092Z,2.60
2022-12-02T23:05:53.573Z,2.51
2022-12-02T23:08:55.831Z,2.46
2022-12-02T23:11:58.169Z,2.45
2022-12-02T23:15:34.001Z,2.45
2022-12-02T23:18:22.889Z,2.46
2022-12-02T23:21:25.273Z,2.52
2022-12-02T23:24:27.562Z,2.56
2022-12-02T23:27:29.912Z,2.58
2022-12-02T23:30:32.464Z,2.61
2022-12-02T23:33:34.843Z,2.59
2022-12-02T23:36:37.104Z,2.62
2022-12-02T23:39:39.362Z,2.64
2022-12-02T23:42:41.680Z,2.63
2022-12-02T23:45:44.044Z,2.63
2022-12-02T23:48:46.437Z,2.64
2022-12-02T23:51:48.722Z,2.58
2022-12-02T23:54:51.295Z,2.56
2022-12-02T23:57:53.816Z,2.56
